Willow Springs, Texas
Current Conditions -  °F | °C
As of 7:53 PM on Sunday 25 Jan 2015 (Local Time) from KCXO Reporting Station
Clear Clear  
Wind Chill: 58°   Ceiling: Unl
Heat Index: 58°   Visibility: 10mi
Dew Point: 28°   Wind: 9mph
Humidity: 32%   Direction: 320°NW
Pressure: 30.1"   Gusts: NA
Location:  30.5835°N, 95.1294°W
Report Text: KCXO 260153Z 32008KT 10SM CLR 14/M02 A3010 RMK AO2 SLP191 T01441022
Loading
Personal Weather Stations






























Interactive Weather Map New forecast layout! Learn more

10-Day Weather Forecast

Advertisements
Track Severe Weather on mobile